createdAt,value
2018-09-09T00:00:27.915Z,1013.30
2018-09-09T00:01:27.903Z,1013.31
2018-09-09T00:02:27.908Z,1013.28
2018-09-09T00:03:27.875Z,1013.29
2018-09-09T00:04:27.863Z,1013.28
2018-09-09T00:05:27.861Z,1013.24
2018-09-09T00:06:27.839Z,1013.23
2018-09-09T00:07:27.828Z,1013.28
2018-09-09T00:08:27.809Z,1013.27
2018-09-09T00:09:27.797Z,1013.27
2018-09-09T00:10:27.783Z,1013.29
2018-09-09T00:11:27.767Z,1013.31
2018-09-09T00:12:27.758Z,1013.33
2018-09-09T00:13:27.741Z,1013.33
2018-09-09T00:14:27.726Z,1013.35
2018-09-09T00:15:27.714Z,1013.39
2018-09-09T00:16:27.702Z,1013.42
2018-09-09T00:17:27.688Z,1013.41
2018-09-09T00:18:27.678Z,1013.42
2018-09-09T00:19:27.658Z,1013.41
2018-09-09T00:20:27.646Z,1013.40
2018-09-09T00:21:27.631Z,1013.41
2018-09-09T00:22:27.618Z,1013.38
2018-09-09T00:23:27.605Z,1013.38
2018-09-09T00:24:27.589Z,1013.37
2018-09-09T00:25:27.573Z,1013.36
2018-09-09T00:26:27.567Z,1013.36
2018-09-09T00:27:27.551Z,1013.33
2018-09-09T00:28:27.536Z,1013.32
2018-09-09T00:29:27.522Z,1013.33
2018-09-09T00:30:27.507Z,1013.35
2018-09-09T00:31:27.493Z,1013.33
2018-09-09T00:32:27.479Z,1013.37
2018-09-09T00:33:27.471Z,1013.35
2018-09-09T00:34:27.456Z,1013.36
2018-09-09T00:35:27.440Z,1013.30
2018-09-09T00:36:27.427Z,1013.33
2018-09-09T00:37:27.412Z,1013.33
2018-09-09T00:38:27.398Z,1013.32
2018-09-09T00:39:27.385Z,1013.30
2018-09-09T00:40:27.371Z,1013.28
2018-09-09T00:41:27.358Z,1013.29
2018-09-09T00:42:27.343Z,1013.29
2018-09-09T00:43:27.331Z,1013.27
2018-09-09T00:44:27.314Z,1013.29
2018-09-09T00:45:27.312Z,1013.31
2018-09-09T00:46:27.290Z,1013.31
2018-09-09T00:47:27.274Z,1013.32
2018-09-09T00:48:27.260Z,1013.33
2018-09-09T00:49:27.247Z,1013.32
2018-09-09T00:50:27.235Z,1013.32
2018-09-09T00:51:27.222Z,1013.33
2018-09-09T00:52:27.206Z,1013.31
2018-09-09T00:53:27.192Z,1013.29
2018-09-09T00:54:27.180Z,1013.28
2018-09-09T00:55:27.168Z,1013.27
2018-09-09T00:56:27.150Z,1013.28
2018-09-09T00:57:27.136Z,1013.33
2018-09-09T00:58:27.134Z,1013.31
2018-09-09T00:59:27.109Z,1013.33
2018-09-09T01:00:27.104Z,1013.32
2018-09-09T01:01:27.080Z,1013.33
2018-09-09T01:02:27.067Z,1013.38
2018-09-09T01:03:27.061Z,1013.35
2018-09-09T01:04:27.043Z,1013.32
2018-09-09T01:05:27.030Z,1013.31
2018-09-09T01:06:27.012Z,1013.31
2018-09-09T01:07:26.999Z,1013.28
2018-09-09T01:08:26.986Z,1013.30
2018-09-09T01:09:26.979Z,1013.33
2018-09-09T01:10:26.963Z,1013.32
2018-09-09T01:11:26.944Z,1013.30
2018-09-09T01:12:26.928Z,1013.31
2018-09-09T01:13:26.917Z,1013.28
2018-09-09T01:14:26.903Z,1013.32
2018-09-09T01:15:26.897Z,1013.31
2018-09-09T01:16:26.874Z,1013.30
2018-09-09T01:17:26.861Z,1013.31
2018-09-09T01:18:26.850Z,1013.29
2018-09-09T01:19:26.833Z,1013.26
2018-09-09T01:20:26.818Z,1013.26
2018-09-09T01:21:26.803Z,1013.26
2018-09-09T01:22:26.793Z,1013.23
2018-09-09T01:23:26.780Z,1013.25
2018-09-09T01:24:26.763Z,1013.25
2018-09-09T01:25:26.751Z,1013.26
2018-09-09T01:26:26.734Z,1013.24
2018-09-09T01:27:26.723Z,1013.24
2018-09-09T01:28:26.715Z,1013.25
2018-09-09T01:29:26.693Z,1013.26
2018-09-09T01:30:26.679Z,1013.25
2018-09-09T01:31:26.668Z,1013.26
2018-09-09T01:32:26.652Z,1013.23
2018-09-09T01:33:26.637Z,1013.27
2018-09-09T01:34:26.622Z,1013.26
2018-09-09T01:35:26.610Z,1013.25
2018-09-09T01:36:26.604Z,1013.20
2018-09-09T01:37:26.581Z,1013.21
2018-09-09T01:38:26.570Z,1013.15
2018-09-09T01:39:26.554Z,1013.13
2018-09-09T01:40:26.542Z,1013.16
2018-09-09T01:41:26.524Z,1013.16
2018-09-09T01:42:26.520Z,1013.15
2018-09-09T01:43:26.502Z,1013.19
2018-09-09T01:44:26.495Z,1013.17
2018-09-09T01:45:26.469Z,1013.20
2018-09-09T01:46:26.457Z,1013.25
2018-09-09T01:47:26.442Z,1013.22
2018-09-09T01:48:26.430Z,1013.23
2018-09-09T01:49:26.421Z,1013.22
2018-09-09T01:50:26.407Z,1013.22
2018-09-09T01:51:26.396Z,1013.23
2018-09-09T01:52:26.372Z,1013.24
2018-09-09T01:53:26.357Z,1013.28
2018-09-09T01:54:26.342Z,1013.30
2018-09-09T01:55:26.329Z,1013.27
2018-09-09T01:56:26.317Z,1013.25
2018-09-09T01:57:26.301Z,1013.24
2018-09-09T01:58:26.287Z,1013.23
2018-09-09T01:59:26.273Z,1013.24
2018-09-09T02:00:26.259Z,1013.21
2018-09-09T02:01:26.244Z,1013.22
2018-09-09T02:02:26.230Z,1013.20
2018-09-09T02:03:26.217Z,1013.18
2018-09-09T02:04:26.207Z,1013.19
2018-09-09T02:05:26.189Z,1013.19
2018-09-09T02:06:26.187Z,1013.23
2018-09-09T02:07:26.160Z,1013.23
2018-09-09T02:08:26.146Z,1013.25
2018-09-09T02:09:26.143Z,1013.22
2018-09-09T02:10:26.118Z,1013.22
2018-09-09T02:11:26.105Z,1013.24
2018-09-09T02:12:26.092Z,1013.25
2018-09-09T02:13:26.076Z,1013.27
2018-09-09T02:14:26.062Z,1013.29
2018-09-09T02:15:26.050Z,1013.31
2018-09-09T02:16:26.038Z,1013.31
2018-09-09T02:17:26.021Z,1013.29
2018-09-09T02:18:26.006Z,1013.30
2018-09-09T02:19:25.991Z,1013.26
2018-09-09T02:20:25.982Z,1013.22
2018-09-09T02:21:25.965Z,1013.21
2018-09-09T02:22:25.951Z,1013.19
2018-09-09T02:23:25.937Z,1013.14
2018-09-09T02:24:25.922Z,1013.18
2018-09-09T02:25:25.908Z,1013.17
2018-09-09T02:26:25.894Z,1013.18
2018-09-09T02:27:25.879Z,1013.20
2018-09-09T02:28:25.868Z,1013.19
2018-09-09T02:29:25.861Z,1013.19
2018-09-09T02:30:25.837Z,1013.23
2018-09-09T02:31:25.823Z,1013.25
2018-09-09T02:32:25.809Z,1013.26
2018-09-09T02:33:25.796Z,1013.23
2018-09-09T02:34:25.785Z,1013.23
2018-09-09T02:35:25.768Z,1013.28
2018-09-09T02:36:25.764Z,1013.26
2018-09-09T02:37:25.741Z,1013.26
2018-09-09T02:38:25.730Z,1013.25
2018-09-09T02:39:25.722Z,1013.29
2018-09-09T02:40:25.698Z,1013.32
2018-09-09T02:41:25.684Z,1013.31
2018-09-09T02:42:25.670Z,1013.29
2018-09-09T02:43:25.658Z,1013.28
2018-09-09T02:44:25.657Z,1013.29
2018-09-09T02:45:25.629Z,1013.27
2018-09-09T02:46:25.615Z,1013.23
2018-09-09T02:47:25.601Z,1013.28
2018-09-09T02:48:25.587Z,1013.24
2018-09-09T02:49:25.574Z,1013.27
2018-09-09T02:50:25.558Z,1013.26
2018-09-09T02:51:25.547Z,1013.22
2018-09-09T02:52:25.531Z,1013.24
2018-09-09T02:53:25.523Z,1013.20
2018-09-09T02:54:25.504Z,1013.21
2018-09-09T02:55:25.489Z,1013.19
2018-09-09T02:56:25.477Z,1013.20
2018-09-09T02:57:25.461Z,1013.21
2018-09-09T02:58:25.448Z,1013.20
2018-09-09T02:59:25.435Z,1013.15
2018-09-09T03:00:25.417Z,1013.12
2018-09-09T03:01:25.407Z,1013.15
2018-09-09T03:02:25.392Z,1013.17
2018-09-09T03:03:25.379Z,1013.21
2018-09-09T03:04:25.384Z,1013.23
2018-09-09T03:05:25.346Z,1013.26
2018-09-09T03:06:25.335Z,1013.25
2018-09-09T03:07:25.320Z,1013.24
2018-09-09T03:08:25.305Z,1013.25
2018-09-09T03:09:25.290Z,1013.28
2018-09-09T03:10:25.278Z,1013.30
2018-09-09T03:11:25.265Z,1013.31
2018-09-09T03:12:25.257Z,1013.28
2018-09-09T03:13:25.238Z,1013.29
2018-09-09T03:14:25.220Z,1013.28
2018-09-09T03:15:25.205Z,1013.29
2018-09-09T03:16:25.188Z,1013.22
2018-09-09T03:17:25.180Z,1013.22
2018-09-09T03:18:25.165Z,1013.23
2018-09-09T03:19:25.161Z,1013.26
2018-09-09T03:20:25.136Z,1013.29
2018-09-09T03:21:25.118Z,1013.32
2018-09-09T03:22:25.106Z,1013.32
2018-09-09T03:23:25.091Z,1013.32
2018-09-09T03:24:25.077Z,1013.31
2018-09-09T03:25:25.070Z,1013.30
2018-09-09T03:26:25.048Z,1013.32
2018-09-09T03:27:25.034Z,1013.29
2018-09-09T03:28:25.066Z,1013.32
2018-09-09T03:29:25.012Z,1013.31
2018-09-09T03:30:24.996Z,1013.29
2018-09-09T03:31:24.979Z,1013.29
2018-09-09T03:32:24.971Z,1013.28
2018-09-09T03:33:24.949Z,1013.24
2018-09-09T03:34:24.935Z,1013.13
2018-09-09T03:35:24.922Z,1013.10
2018-09-09T03:36:24.907Z,1013.02
2018-09-09T03:37:24.893Z,1013.01
2018-09-09T03:38:24.879Z,1012.96
2018-09-09T03:39:24.872Z,1012.96
2018-09-09T03:40:24.853Z,1012.99
2018-09-09T03:41:24.836Z,1012.97
2018-09-09T03:42:24.823Z,1013.01
2018-09-09T03:43:24.807Z,1013.01
2018-09-09T03:44:24.793Z,1012.95
2018-09-09T03:45:24.779Z,1013.01
2018-09-09T03:46:24.765Z,1012.97
2018-09-09T03:47:24.754Z,1013.01
2018-09-09T03:48:24.734Z,1013.06
2018-09-09T03:49:24.726Z,1013.06
2018-09-09T03:50:24.709Z,1013.05
2018-09-09T03:51:24.692Z,1013.02
2018-09-09T03:52:24.678Z,1013.02
2018-09-09T03:53:24.663Z,1013.07
2018-09-09T03:54:24.651Z,1013.08
2018-09-09T03:55:24.640Z,1013.10
2018-09-09T03:56:24.626Z,1013.09
2018-09-09T03:57:24.608Z,1013.10
2018-09-09T03:58:24.595Z,1013.07
2018-09-09T03:59:24.578Z,1013.11
2018-09-09T04:00:24.566Z,1013.13
2018-09-09T04:01:24.549Z,1013.15
2018-09-09T04:02:24.535Z,1013.14
2018-09-09T04:03:24.528Z,1013.16
2018-09-09T04:04:24.506Z,1013.16
2018-09-09T04:05:24.493Z,1013.15
2018-09-09T04:06:24.477Z,1013.16
2018-09-09T04:07:24.464Z,1013.18
2018-09-09T04:08:24.454Z,1013.21
2018-09-09T04:09:24.436Z,1013.23
2018-09-09T04:10:24.425Z,1013.23
2018-09-09T04:11:24.408Z,1013.20
2018-09-09T04:12:24.397Z,1013.21
2018-09-09T04:13:24.382Z,1013.25
2018-09-09T04:14:24.364Z,1013.25
2018-09-09T04:15:24.350Z,1013.26
2018-09-09T04:16:24.336Z,1013.25
2018-09-09T04:17:24.326Z,1013.26
2018-09-09T04:18:24.308Z,1013.26
2018-09-09T04:19:24.301Z,1013.26
2018-09-09T04:20:24.282Z,1013.27
2018-09-09T04:21:24.265Z,1013.25
2018-09-09T04:22:24.257Z,1013.30
2018-09-09T04:23:24.241Z,1013.31
2018-09-09T04:24:24.223Z,1013.30
2018-09-09T04:25:24.206Z,1013.29
2018-09-09T04:26:24.193Z,1013.31
2018-09-09T04:27:24.180Z,1013.27
2018-09-09T04:28:24.164Z,1013.26
2018-09-09T04:29:24.150Z,1013.28
2018-09-09T04:30:24.141Z,1013.26
2018-09-09T04:31:24.123Z,1013.25
2018-09-09T04:32:24.107Z,1013.21
2018-09-09T04:33:24.096Z,1013.21
2018-09-09T04:34:24.086Z,1013.22
2018-09-09T04:35:24.067Z,1013.23
2018-09-09T04:36:24.051Z,1013.22
2018-09-09T04:37:24.038Z,1013.20
2018-09-09T04:38:24.027Z,1013.21
2018-09-09T04:39:24.009Z,1013.20
2018-09-09T04:40:23.994Z,1013.23
2018-09-09T04:41:23.980Z,1013.22
2018-09-09T04:42:23.969Z,1013.23
2018-09-09T04:43:23.950Z,1013.21
2018-09-09T04:44:23.937Z,1013.21
2018-09-09T04:45:23.924Z,1013.24
2018-09-09T04:46:24.054Z,1013.26
2018-09-09T04:47:23.893Z,1013.26
2018-09-09T04:48:23.879Z,1013.28
2018-09-09T04:49:23.865Z,1013.28
2018-09-09T04:50:23.858Z,1013.33
2018-09-09T04:51:23.837Z,1013.31
2018-09-09T04:52:23.824Z,1013.29
2018-09-09T04:53:23.813Z,1013.24
2018-09-09T04:54:23.799Z,1013.23
2018-09-09T04:55:23.785Z,1013.26
2018-09-09T04:56:23.766Z,1013.26
2018-09-09T04:57:23.751Z,1013.27
2018-09-09T04:58:23.738Z,1013.32
2018-09-09T04:59:23.723Z,1013.32
2018-09-09T05:00:23.711Z,1013.31
2018-09-09T05:01:23.765Z,1013.26
2018-09-09T05:02:23.681Z,1013.25
2018-09-09T05:03:23.672Z,1013.28
2018-09-09T05:04:23.651Z,1013.30
2018-09-09T05:05:23.641Z,1013.30
2018-09-09T05:06:23.627Z,1013.33
2018-09-09T05:07:23.610Z,1013.38
2018-09-09T05:08:23.600Z,1013.38
2018-09-09T05:09:23.583Z,1013.40
2018-09-09T05:10:23.569Z,1013.43
2018-09-09T05:11:23.556Z,1013.43
2018-09-09T05:12:23.537Z,1013.45
2018-09-09T05:13:23.542Z,1013.48
2018-09-09T05:14:23.512Z,1013.45
2018-09-09T05:15:23.496Z,1013.44
2018-09-09T05:16:23.480Z,1013.43
2018-09-09T05:17:23.466Z,1013.43
2018-09-09T05:18:23.451Z,1013.46
2018-09-09T05:19:23.449Z,1013.48
2018-09-09T05:20:23.426Z,1013.46
2018-09-09T05:21:23.408Z,1013.49
2018-09-09T05:22:23.395Z,1013.52
2018-09-09T05:23:23.390Z,1013.56
2018-09-09T05:24:23.364Z,1013.55
2018-09-09T05:25:23.351Z,1013.57
2018-09-09T05:26:23.337Z,1013.56
2018-09-09T05:27:23.327Z,1013.60
2018-09-09T05:28:23.308Z,1013.65
2018-09-09T05:29:23.294Z,1013.63
2018-09-09T05:30:23.284Z,1013.68
2018-09-09T05:31:23.272Z,1013.68
2018-09-09T05:32:23.258Z,1013.68
2018-09-09T05:33:23.245Z,1013.68
2018-09-09T05:34:23.227Z,1013.66
2018-09-09T05:35:23.214Z,1013.68
2018-09-09T05:36:23.197Z,1013.67
2018-09-09T05:37:23.186Z,1013.66
2018-09-09T05:38:23.171Z,1013.62
2018-09-09T05:39:23.155Z,1013.65
2018-09-09T05:40:23.140Z,1013.66
2018-09-09T05:41:23.131Z,1013.66
2018-09-09T05:42:23.173Z,1013.65
2018-09-09T05:43:23.105Z,1013.66
2018-09-09T05:44:23.082Z,1013.63
2018-09-09T05:45:23.069Z,1013.61
2018-09-09T05:46:23.057Z,1013.67
2018-09-09T05:47:23.042Z,1013.65
2018-09-09T05:48:23.027Z,1013.66
2018-09-09T05:49:23.011Z,1013.63
2018-09-09T05:50:22.998Z,1013.65
2018-09-09T05:51:22.993Z,1013.69
2018-09-09T05:52:22.972Z,1013.71
2018-09-09T05:53:22.965Z,1013.69
2018-09-09T05:54:22.951Z,1013.71
2018-09-09T05:55:22.927Z,1013.70
2018-09-09T05:56:22.912Z,1013.76
2018-09-09T05:57:22.911Z,1013.76
2018-09-09T05:58:22.884Z,1013.74
2018-09-09T05:59:22.870Z,1013.77
2018-09-09T06:00:22.855Z,1013.76
2018-09-09T06:01:22.844Z,1013.74
2018-09-09T06:02:22.828Z,1013.76
2018-09-09T06:03:22.818Z,1013.78
2018-09-09T06:04:22.797Z,1013.75
2018-09-09T06:05:22.784Z,1013.80
2018-09-09T06:06:22.773Z,1013.78
2018-09-09T06:07:22.755Z,1013.75
2018-09-09T06:08:22.742Z,1013.73
2018-09-09T06:09:22.730Z,1013.73
2018-09-09T06:10:22.717Z,1013.71
2018-09-09T06:11:22.709Z,1013.71
2018-09-09T06:12:22.684Z,1013.73
2018-09-09T06:13:22.669Z,1013.70
2018-09-09T06:14:22.655Z,1013.74
2018-09-09T06:15:22.643Z,1013.75
2018-09-09T06:16:22.627Z,1013.74
2018-09-09T06:17:22.614Z,1013.70
2018-09-09T06:18:22.600Z,1013.69
2018-09-09T06:19:22.590Z,1013.70
2018-09-09T06:20:22.572Z,1013.74
2018-09-09T06:21:22.557Z,1013.74
2018-09-09T06:22:22.545Z,1013.80
2018-09-09T06:23:22.530Z,1013.82
2018-09-09T06:24:22.518Z,1013.86
2018-09-09T06:25:22.511Z,1013.86
2018-09-09T06:26:22.489Z,1013.86
2018-09-09T06:27:22.476Z,1013.88
2018-09-09T06:28:22.569Z,1013.92
2018-09-09T06:29:22.452Z,1013.93
2018-09-09T06:30:22.433Z,1013.92
2018-09-09T06:31:22.428Z,1013.92
2018-09-09T06:32:22.407Z,1013.94
2018-09-09T06:33:22.393Z,1013.95
2018-09-09T06:34:22.381Z,1013.98
2018-09-09T06:35:22.405Z,1013.98
2018-09-09T06:36:22.350Z,1014.02
2018-09-09T06:37:22.335Z,1014.02
2018-09-09T06:38:22.326Z,1014.03
2018-09-09T06:39:22.307Z,1014.00
2018-09-09T06:40:22.297Z,1013.98
2018-09-09T06:41:22.282Z,1014.00
2018-09-09T06:42:22.269Z,1014.05
2018-09-09T06:43:22.267Z,1014.07
2018-09-09T06:44:22.240Z,1014.10
2018-09-09T06:45:22.232Z,1014.08
2018-09-09T06:46:22.256Z,1014.05
2018-09-09T06:47:22.203Z,1014.15
2018-09-09T06:48:22.189Z,1014.10
2018-09-09T06:49:22.183Z,1014.12
2018-09-09T06:50:22.162Z,1014.12
2018-09-09T06:51:22.192Z,1014.10
2018-09-09T06:52:22.135Z,1014.12
2018-09-09T06:53:22.123Z,1014.11
2018-09-09T06:54:22.108Z,1014.15
2018-09-09T06:55:22.146Z,1014.15
2018-09-09T06:56:22.084Z,1014.20
2018-09-09T06:57:22.073Z,1014.28
2018-09-09T06:58:22.061Z,1014.21
2018-09-09T06:59:22.052Z,1014.24
2018-09-09T07:00:22.035Z,1014.34
2018-09-09T07:01:22.023Z,1014.31
2018-09-09T07:02:22.117Z,1014.49
2018-09-09T07:03:22.002Z,1014.27
2018-09-09T07:04:21.992Z,1014.26
2018-09-09T07:05:21.978Z,1014.24
2018-09-09T07:06:21.969Z,1014.29
2018-09-09T07:07:21.967Z,1014.57
2018-09-09T07:08:21.946Z,1014.67
2018-09-09T07:09:21.937Z,1014.59
2018-09-09T07:10:21.933Z,1014.32
2018-09-09T07:11:22.015Z,1014.70
2018-09-09T07:12:21.914Z,1014.62
2018-09-09T07:13:21.905Z,1014.59
2018-09-09T07:14:21.896Z,1014.53
2018-09-09T07:15:21.891Z,1014.61
2018-09-09T07:16:21.880Z,1014.51
2018-09-09T07:17:21.881Z,1014.31
2018-09-09T07:18:21.866Z,1014.41
2018-09-09T07:19:21.855Z,1014.38
2018-09-09T07:20:21.847Z,1014.47
2018-09-09T07:21:21.842Z,1014.48
2018-09-09T07:22:21.835Z,1014.56
2018-09-09T07:23:21.828Z,1014.61
2018-09-09T07:24:21.816Z,1014.67
2018-09-09T07:25:21.812Z,1014.61
2018-09-09T07:26:21.799Z,1014.66
2018-09-09T07:27:21.795Z,1014.54
2018-09-09T07:28:21.819Z,1014.50
2018-09-09T07:29:21.779Z,1014.53
2018-09-09T07:30:21.771Z,1014.53
2018-09-09T07:31:21.765Z,1014.63
2018-09-09T07:32:21.756Z,1014.51
2018-09-09T07:33:21.754Z,1014.45
2018-09-09T07:34:21.861Z,1014.49
2018-09-09T07:35:21.733Z,1014.43
2018-09-09T07:36:21.728Z,1014.55
2018-09-09T07:37:21.749Z,1014.40
2018-09-09T07:38:21.711Z,1014.47
2018-09-09T07:39:21.710Z,1014.48
2018-09-09T07:40:21.694Z,1014.53
2018-09-09T07:41:21.685Z,1014.46
2018-09-09T07:42:21.678Z,1014.50
2018-09-09T07:43:21.671Z,1014.53
2018-09-09T07:44:21.660Z,1014.54
2018-09-09T07:45:21.654Z,1014.49
2018-09-09T07:46:21.695Z,1014.46
2018-09-09T07:47:21.645Z,1014.48
2018-09-09T07:48:21.629Z,1014.45
2018-09-09T07:49:21.621Z,1014.42
2018-09-09T07:50:21.639Z,1014.43
2018-09-09T07:51:21.600Z,1014.48
2018-09-09T07:52:21.590Z,1014.44
2018-09-09T07:53:21.581Z,1014.45
2018-09-09T07:54:21.571Z,1014.48
2018-09-09T07:55:21.568Z,1014.47
2018-09-09T07:56:21.590Z,1014.48
2018-09-09T07:57:21.543Z,1014.46
2018-09-09T07:58:21.532Z,1014.51
2018-09-09T07:59:21.525Z,1014.48
2018-09-09T08:00:21.527Z,1014.46
2018-09-09T08:01:21.500Z,1014.44
2018-09-09T08:02:21.490Z,1014.46
2018-09-09T08:03:21.481Z,1014.47
2018-09-09T08:04:21.473Z,1014.50
2018-09-09T08:05:21.461Z,1014.51
2018-09-09T08:06:21.446Z,1014.51
2018-09-09T08:07:21.435Z,1014.53
2018-09-09T08:08:21.431Z,1014.51
2018-09-09T08:09:21.414Z,1014.52
2018-09-09T08:10:21.404Z,1014.49
2018-09-09T08:11:21.398Z,1014.50
2018-09-09T08:12:21.385Z,1014.46
2018-09-09T08:13:21.370Z,1014.49
2018-09-09T08:14:21.364Z,1014.53
2018-09-09T08:15:21.352Z,1014.52
2018-09-09T08:16:21.337Z,1014.52
2018-09-09T08:17:21.333Z,1014.54
2018-09-09T08:18:21.380Z,1014.54
2018-09-09T08:19:21.303Z,1014.54
2018-09-09T08:20:21.291Z,1014.54
2018-09-09T08:21:21.282Z,1014.46
2018-09-09T08:22:21.269Z,1014.40
2018-09-09T08:23:21.260Z,1014.40
2018-09-09T08:24:21.253Z,1014.38
2018-09-09T08:25:21.238Z,1014.35
2018-09-09T08:26:21.234Z,1014.26
2018-09-09T08:27:21.216Z,1014.27
2018-09-09T08:28:21.205Z,1014.29
2018-09-09T08:29:21.192Z,1014.27
2018-09-09T08:30:21.187Z,1014.29
2018-09-09T08:31:21.171Z,1014.30
2018-09-09T08:32:21.154Z,1014.36
2018-09-09T08:33:21.147Z,1014.35
2018-09-09T08:34:21.136Z,1014.40
2018-09-09T08:35:21.124Z,1014.36
2018-09-09T08:36:21.114Z,1014.34
2018-09-09T08:37:21.105Z,1014.39
2018-09-09T08:38:21.088Z,1014.39
2018-09-09T08:39:21.081Z,1014.39
2018-09-09T08:40:21.067Z,1014.40
2018-09-09T08:41:21.054Z,1014.42
2018-09-09T08:42:21.043Z,1014.41
2018-09-09T08:43:21.032Z,1014.41
2018-09-09T08:44:21.024Z,1014.48
2018-09-09T08:45:21.068Z,1014.51
2018-09-09T08:46:21.000Z,1014.53
2018-09-09T08:47:20.990Z,1014.54
2018-09-09T08:48:20.976Z,1014.59
2018-09-09T08:49:20.977Z,1014.63
2018-09-09T08:50:20.960Z,1014.65
2018-09-09T08:51:20.946Z,1014.67
2018-09-09T08:52:20.938Z,1014.70
2018-09-09T08:53:20.926Z,1014.70
2018-09-09T08:54:20.920Z,1014.69
2018-09-09T08:55:20.908Z,1014.80
2018-09-09T08:56:20.904Z,1014.76
2018-09-09T08:57:20.886Z,1014.78
2018-09-09T08:58:20.877Z,1014.64
2018-09-09T08:59:20.877Z,1014.63
2018-09-09T09:00:20.859Z,1014.81
2018-09-09T09:01:20.848Z,1014.93
2018-09-09T09:02:20.840Z,1014.71
2018-09-09T09:03:20.833Z,1014.65
2018-09-09T09:04:20.829Z,1014.87
2018-09-09T09:05:20.814Z,1014.81
2018-09-09T09:06:20.811Z,1014.88
2018-09-09T09:07:20.812Z,1014.69
2018-09-09T09:08:20.795Z,1014.72
2018-09-09T09:09:20.785Z,1014.81
2018-09-09T09:10:20.779Z,1014.74
2018-09-09T09:11:20.769Z,1014.65
2018-09-09T09:12:20.759Z,1014.79
2018-09-09T09:13:20.753Z,1014.73
2018-09-09T09:14:20.743Z,1014.73
2018-09-09T09:15:20.738Z,1014.59
2018-09-09T09:16:20.729Z,1014.64
2018-09-09T09:17:20.725Z,1014.58
2018-09-09T09:18:20.716Z,1014.59
2018-09-09T09:19:20.711Z,1014.56
2018-09-09T09:20:20.703Z,1014.59
2018-09-09T09:21:20.692Z,1014.60
2018-09-09T09:22:20.684Z,1014.59
2018-09-09T09:23:20.680Z,1014.60
2018-09-09T09:24:20.693Z,1014.59
2018-09-09T09:25:20.664Z,1014.67
2018-09-09T09:26:20.656Z,1014.61
2018-09-09T09:27:20.649Z,1014.64
2018-09-09T09:28:20.639Z,1014.72
2018-09-09T09:29:20.634Z,1014.67
2018-09-09T09:30:20.633Z,1014.86
2018-09-09T09:31:20.619Z,1014.60
2018-09-09T09:32:20.614Z,1014.68
2018-09-09T09:33:20.603Z,1014.60
2018-09-09T09:34:20.658Z,1014.60
2018-09-09T09:35:20.599Z,1014.66
2018-09-09T09:36:20.587Z,1014.59
2018-09-09T09:37:20.576Z,1014.64
2018-09-09T09:38:20.573Z,1014.64
2018-09-09T09:39:20.597Z,1014.62
2018-09-09T09:40:20.558Z,1014.65
2018-09-09T09:41:20.549Z,1014.65
2018-09-09T09:42:20.541Z,1014.70
2018-09-09T09:43:20.543Z,1014.72
2018-09-09T09:44:20.532Z,1014.80
2018-09-09T09:45:20.520Z,1014.69
2018-09-09T09:46:20.513Z,1014.72
2018-09-09T09:47:20.519Z,1014.73
2018-09-09T09:48:20.495Z,1014.73
2018-09-09T09:49:20.489Z,1014.73
2018-09-09T09:50:20.482Z,1014.77
2018-09-09T09:51:20.476Z,1014.70
2018-09-09T09:52:20.468Z,1014.65
2018-09-09T09:53:20.580Z,1014.66
2018-09-09T09:54:20.452Z,1014.69
2018-09-09T09:55:20.488Z,1014.66
2018-09-09T09:56:20.434Z,1014.68
2018-09-09T09:57:20.428Z,1014.74
2018-09-09T09:58:20.418Z,1014.72
2018-09-09T09:59:20.414Z,1014.71
2018-09-09T10:00:20.405Z,1014.70
2018-09-09T10:01:20.395Z,1014.72
2018-09-09T10:02:20.385Z,1014.75
2018-09-09T10:03:20.381Z,1014.71
2018-09-09T10:04:20.368Z,1014.63
2018-09-09T10:05:20.360Z,1014.68
2018-09-09T10:06:20.352Z,1014.68
2018-09-09T10:07:20.345Z,1014.64
2018-09-09T10:08:20.336Z,1014.58
2018-09-09T10:09:20.328Z,1014.54
2018-09-09T10:10:20.323Z,1014.56
2018-09-09T10:11:20.318Z,1014.55
2018-09-09T10:12:20.303Z,1014.57
2018-09-09T10:13:20.297Z,1014.56
2018-09-09T10:14:20.296Z,1014.57
2018-09-09T10:15:20.276Z,1014.65
2018-09-09T10:16:20.271Z,1014.59
2018-09-09T10:17:20.270Z,1014.61
2018-09-09T10:18:20.255Z,1014.64
2018-09-09T10:19:20.243Z,1014.60
2018-09-09T10:20:20.239Z,1014.60
2018-09-09T10:21:20.227Z,1014.64
2018-09-09T10:22:20.219Z,1014.62
2018-09-09T10:23:20.208Z,1014.63
2018-09-09T10:24:20.199Z,1014.62
2018-09-09T10:25:20.191Z,1014.60
2018-09-09T10:26:20.183Z,1014.60
2018-09-09T10:27:20.173Z,1014.60
2018-09-09T10:28:20.169Z,1014.56
2018-09-09T10:29:20.170Z,1014.53
2018-09-09T10:30:20.152Z,1014.57
2018-09-09T10:31:20.139Z,1014.57
2018-09-09T10:32:20.131Z,1014.58
2018-09-09T10:33:20.122Z,1014.54
2018-09-09T10:34:20.114Z,1014.67
2018-09-09T10:35:20.108Z,1014.64
2018-09-09T10:36:20.096Z,1014.64
2018-09-09T10:37:20.090Z,1014.61
2018-09-09T10:38:20.081Z,1014.61
2018-09-09T10:39:20.074Z,1014.65
2018-09-09T10:40:20.062Z,1014.73
2018-09-09T10:41:20.058Z,1014.64
2018-09-09T10:42:20.052Z,1014.68
2018-09-09T10:43:20.046Z,1014.64
2018-09-09T10:44:20.032Z,1014.68
2018-09-09T10:45:20.026Z,1014.62
2018-09-09T10:46:20.139Z,1014.67
2018-09-09T10:47:20.015Z,1014.66
2018-09-09T10:48:20.004Z,1014.67
2018-09-09T10:49:20.005Z,1014.68
2018-09-09T10:50:19.986Z,1014.70
2018-09-09T10:51:19.983Z,1014.68
2018-09-09T10:52:19.972Z,1014.75
2018-09-09T10:53:19.965Z,1014.66
2018-09-09T10:54:19.959Z,1014.71
2018-09-09T10:55:19.954Z,1014.68
2018-09-09T10:56:19.942Z,1014.73
2018-09-09T10:57:19.936Z,1014.74
2018-09-09T10:58:19.926Z,1014.73
2018-09-09T10:59:19.919Z,1014.70
2018-09-09T11:00:19.914Z,1014.78
2018-09-09T11:01:19.905Z,1014.83
2018-09-09T11:02:19.903Z,1014.77
2018-09-09T11:03:19.891Z,1014.73
2018-09-09T11:04:19.884Z,1014.71
2018-09-09T11:05:19.878Z,1014.71
2018-09-09T11:06:19.870Z,1014.75
2018-09-09T11:07:19.863Z,1014.69
2018-09-09T11:08:19.862Z,1014.68
2018-09-09T11:09:19.851Z,1014.76
2018-09-09T11:10:19.843Z,1014.72
2018-09-09T11:11:19.835Z,1014.75
2018-09-09T11:12:19.829Z,1014.78
2018-09-09T11:13:19.827Z,1014.88
2018-09-09T11:14:19.814Z,1014.87
2018-09-09T11:15:19.809Z,1014.78
2018-09-09T11:16:19.807Z,1014.73
2018-09-09T11:17:19.798Z,1014.82
2018-09-09T11:18:19.787Z,1014.79
2018-09-09T11:19:19.796Z,1014.84
2018-09-09T11:20:19.777Z,1014.70
2018-09-09T11:21:19.774Z,1014.73
2018-09-09T11:22:19.763Z,1014.75
2018-09-09T11:23:19.760Z,1014.76
2018-09-09T11:24:19.785Z,1014.73
2018-09-09T11:25:19.745Z,1014.70
2018-09-09T11:26:19.730Z,1014.73
2018-09-09T11:27:19.730Z,1014.71
2018-09-09T11:28:19.724Z,1014.78
2018-09-09T11:29:19.710Z,1014.78
2018-09-09T11:30:19.698Z,1014.77
2018-09-09T11:31:19.708Z,1014.77
2018-09-09T11:32:19.681Z,1014.63
2018-09-09T11:33:19.675Z,1014.67
2018-09-09T11:34:19.678Z,1014.75
2018-09-09T11:35:19.663Z,1014.71
2018-09-09T11:36:19.685Z,1014.79
2018-09-09T11:37:19.649Z,1014.79
2018-09-09T11:38:19.639Z,1014.77
2018-09-09T11:39:19.640Z,1014.73
2018-09-09T11:40:19.624Z,1014.65
2018-09-09T11:41:19.614Z,1014.67
2018-09-09T11:42:19.613Z,1014.62
2018-09-09T11:43:19.613Z,1014.60
2018-09-09T11:44:19.599Z,1014.61
2018-09-09T11:45:19.591Z,1014.61
2018-09-09T11:46:19.578Z,1014.62
2018-09-09T11:47:19.579Z,1014.54
2018-09-09T11:48:19.569Z,1014.61
2018-09-09T11:49:19.556Z,1014.55
2018-09-09T11:50:19.552Z,1014.52
2018-09-09T11:51:19.546Z,1014.59
2018-09-09T11:52:19.530Z,1014.62
2018-09-09T11:53:19.626Z,1014.50
2018-09-09T11:54:19.518Z,1014.49
2018-09-09T11:55:19.508Z,1014.47
2018-09-09T11:56:19.504Z,1014.61
2018-09-09T11:57:19.492Z,1014.59
2018-09-09T11:58:19.482Z,1014.67
2018-09-09T11:59:19.483Z,1014.63
2018-09-09T12:00:19.467Z,1014.59
2018-09-09T12:01:19.460Z,1014.56
2018-09-09T12:02:19.454Z,1014.53
2018-09-09T12:03:19.457Z,1014.55
2018-09-09T12:04:19.440Z,1014.49
2018-09-09T12:05:19.431Z,1014.44